Daybreak2
, South Jordan
Last Weather Update:09/29/2011 11:00:00 PM
Date
ETo
ETc
Rain
Irrigation
Req
Temp
Max
Temp
Min
Temp
Avg
Avg RH
Avg Wind
Avg Solar
inches
inches
incehs
inches
F
F
F
%
%
watts/m2
08/01/2011 0.13" 0.12" 0.43" -0.31" 78.1° 63.6° 70.3° 69.5% 6.0 MPH 164.7w/m2
08/02/2011 0.23" 0.20" 0.00" 0.20" 88.3° 62.2° 74.2° 52.3% 5.4 MPH 277.8w/m2
08/03/2011 0.22" 0.19" 0.07" 0.12" 80.5° 63.1° 72.3° 54.9% 7.1 MPH 249.9w/m2
08/04/2011 0.25" 0.22" 0.00" 0.22" 87.2° 64.8° 75.1° 44.1% 7.8 MPH 254.3w/m2
08/05/2011 0.32" 0.28" 0.03" 0.25" 89.3° 66.1° 77.1° 30.4% 8.6 MPH 317.2w/m2
08/06/2011 0.33" 0.29" 0.01" 0.28" 89.1° 66.0° 77.2° 21.8% 8.3 MPH 317.9w/m2
08/07/2011 0.33" 0.28" 0.05" 0.23" 89.3° 65.2° 77.3° 20.2% 8.6 MPH 313.4w/m2
08/08/2011 0.30" 0.25" 0.00" 0.25" 88.8° 64.5° 77.3° 22.1% 6.8 MPH 307.2w/m2
08/09/2011 0.32" 0.27" 0.05" 0.22" 86.2° 66.8° 77.8° 19.5% 8.5 MPH 307.4w/m2
08/10/2011 0.29" 0.24" 0.01" 0.23" 89.3° 62.3° 75.9° 26.0% 6.6 MPH 306.2w/m2
08/11/2011 0.31" 0.26" 0.01" 0.25" 86.9° 68.4° 78.0° 23.7% 8.0 MPH 301.1w/m2
08/12/2011 0.26" 0.22" 0.03" 0.19" 84.8° 62.8° 75.0° 31.7% 5.6 MPH 300.5w/m2
08/13/2011 0.30" 0.24" 0.00" 0.24" 94.5° 64.1° 79.5° 26.9% 7.3 MPH 282.6w/m2
08/14/2011 0.25" 0.20" 0.03" 0.17" 88.2° 65.1° 77.9° 38.9% 7.1 MPH 258.8w/m2
08/15/2011 0.25" 0.20" 0.25" -0.05" 87.4° 61.1° 73.1° 51.4% 9.2 MPH 261.9w/m2
08/16/2011 0.24" 0.19" 0.00" 0.19" 82.0° 61.4° 73.3° 37.4% 5.7 MPH 286.4w/m2
08/17/2011 0.29" 0.23" 0.00" 0.23" 91.7° 65.1° 77.1° 32.1% 7.9 MPH 294.5w/m2
08/18/2011 0.29" 0.22" 0.01" 0.21" 90.2° 65.5° 78.8° 23.7% 6.4 MPH 301.5w/m2
08/19/2011 0.25" 0.19" 0.03" 0.16" 91.0° 69.5° 79.7° 35.4% 6.8 MPH 235.8w/m2
08/20/2011 0.28" 0.21" 0.05" 0.16" 91.6° 69.6° 78.6° 36.0% 8.0 MPH 251.4w/m2
08/21/2011 0.30" 0.23" 0.04" 0.19" 92.1° 68.3° 80.2° 30.7% 8.4 MPH 266.6w/m2
08/22/2011 0.29" 0.22" 0.03" 0.19" 92.7° 68.8° 80.6° 29.1% 8.1 MPH 265.3w/m2
08/23/2011 0.30" 0.22" 0.12" 0.10" 92.9° 68.8° 80.9° 25.2% 7.2 MPH 282.7w/m2
08/24/2011 0.28" 0.21" 0.09" 0.12" 95.5° 68.4° 81.6° 25.2% 7.0 MPH 222.7w/m2
08/25/2011 0.29" 0.21" 0.07" 0.14" 93.8° 70.4° 82.1° 29.2% 8.4 MPH 217.1w/m2
08/26/2011 0.27" 0.20" 0.08" 0.12" 93.7° 67.9° 81.5° 33.8% 7.9 MPH 222.5w/m2
08/27/2011 0.25" 0.18" 0.40" -0.22" 92.5° 66.8° 81.2° 38.0% 7.4 MPH 228.4w/m2
08/28/2011 0.18" 0.13" 0.94" -0.81" 87.2° 63.6° 74.0° 60.1% 6.4 MPH 220.9w/m2
08/29/2011 0.22" 0.16" 0.15" 0.01" 88.0° 62.1° 73.7° 57.1% 7.2 MPH 265.8w/m2
08/30/2011 0.24" 0.17" 0.10" 0.07" 90.6° 63.1° 77.2° 40.4% 8.5 MPH 233.9w/m2
08/31/2011 0.32" 0.23" 0.11" 0.12" 91.2° 65.4° 80.1° 27.4% 10.2 MPH 253.3w/m2
Totals: 8.37" 6.67" 3.19" 3.48" 95.5° 61.1° 77.4° 35.3% 7.5 MPH 266.8w/m2